Time;durP1;ratioP1;P1;durP2;ratioP2;P2;SDS_P1;SDS_P2;PMS_P1;PMS_P2;Temp;Humidity;BMP_temperature;BMP_pressure;BME280_temperature;BME280_humidity;BME280_pressure;Samples;Min_cycle;Max_cycle;Signal;HPM_P1;HPM_P2
2023/08/29 00:00:56;;;;;;;3.93;1.80;;;;;;;;;;5040363;28;20413;-58
2023/08/29 00:03:22;;;;;;;4.50;1.63;;;;;;;;;;5030242;28;20490;-58
2023/08/29 00:05:47;;;;;;;2.83;1.40;;;;;;;;;;5029121;28;20430;-58
2023/08/29 00:08:12;;;;;;;3.40;1.50;;;;;;;;;;5033925;28;20408;-58
2023/08/29 00:10:38;;;;;;;3.43;1.40;;;;;;;;;;5035255;28;20447;-58
2023/08/29 00:13:03;;;;;;;5.73;1.70;;;;;;;;;;5029755;28;20401;-58
2023/08/29 00:15:28;;;;;;;3.00;1.47;;;;;;;;;;5032650;28;20554;-58
2023/08/29 00:17:54;;;;;;;5.77;1.70;;;;;;;;;;5031492;28;20921;-58
2023/08/29 00:20:19;;;;;;;2.37;1.20;;;;;;;;;;5031608;28;20469;-58
2023/08/29 00:22:44;;;;;;;4.27;1.67;;;;;;;;;;5033264;28;20504;-58
2023/08/29 00:25:09;;;;;;;3.67;1.60;;;;;;;;;;5033355;28;20475;-58
2023/08/29 00:27:35;;;;;;;3.30;1.63;;;;;;;;;;5031073;28;20403;-58
2023/08/29 00:30:00;;;;;;;3.83;1.80;;;;;;;;;;5027459;28;20408;-58
2023/08/29 00:32:25;;;;;;;3.60;1.90;;;;;;;;;;5027167;28;20416;-58
2023/08/29 00:34:51;;;;;;;4.13;1.70;;;;;;;;;;5035285;28;20417;-58
2023/08/29 00:37:16;;;;;;;4.73;1.90;;;;;;;;;;5027632;28;20408;-58
2023/08/29 00:39:41;;;;;;;5.10;1.67;;;;;;;;;;5031371;28;20411;-58
2023/08/29 00:42:06;;;;;;;5.50;2.00;;;;;;;;;;5039863;28;20405;-58
2023/08/29 00:44:32;;;;;;;4.50;1.70;;;;;;;;;;5025976;28;20928;-58
2023/08/29 00:46:57;;;;;;;3.30;1.80;;;;;;;;;;5024341;28;20483;-58
2023/08/29 00:49:23;;;;;;;4.10;1.60;;;;;;;;;;5032009;28;20455;-58
2023/08/29 00:51:48;;;;;;;4.00;1.60;;;;;;;;;;5020732;28;20457;-58
2023/08/29 00:54:14;;;;;;;5.20;1.53;;;;;;;;;;5028909;28;20409;-58
2023/08/29 00:56:39;;;;;;;4.23;1.40;;;;;;;;;;5028991;28;20415;-58
2023/08/29 00:59:04;;;;;;;3.83;1.30;;;;;;;;;;5022283;28;20412;-58
2023/08/29 01:01:30;;;;;;;4.77;1.47;;;;;;;;;;5019421;28;20896;-58
2023/08/29 01:03:56;;;;;;;4.32;1.63;;;;;;;;;;5022639;28;20444;-58
2023/08/29 01:06:21;;;;;;;3.37;1.53;;;;;;;;;;5022235;28;20431;-58
2023/08/29 01:08:47;;;;;;;4.95;1.50;;;;;;;;;;5019674;28;20498;-58
2023/08/29 01:11:13;;;;;;;5.30;1.70;;;;;;;;;;5020392;28;20415;-58
2023/08/29 01:13:41;;;;;;;3.33;1.40;;;;;;;;;;5021738;28;20418;-58
2023/08/29 01:16:07;;;;;;;4.05;1.40;;;;;;;;;;5031051;28;20413;-58
2023/08/29 01:18:32;;;;;;;3.47;1.50;;;;;;;;;;5016567;28;20405;-58
2023/08/29 01:21:02;;;;;;;4.40;1.60;;;;;;;;;;5021649;28;20400;-58
2023/08/29 01:23:31;;;;;;;3.92;1.42;;;;;;;;;;5026265;28;20398;-58
2023/08/29 01:26:06;;;;;;;4.07;1.52;;;;;;;;;;5031379;28;20576;-58
2023/08/29 01:28:32;;;;;;;4.18;1.70;;;;;;;;;;5024416;28;20494;-58
2023/08/29 01:30:57;;;;;;;3.37;1.60;;;;;;;;;;5034119;28;20972;-58
2023/08/29 01:33:22;;;;;;;3.33;1.57;;;;;;;;;;5024200;28;20390;-58
2023/08/29 01:35:48;;;;;;;5.03;1.70;;;;;;;;;;5021929;28;20408;-58
2023/08/29 01:38:13;;;;;;;4.63;1.60;;;;;;;;;;5022823;28;20615;-58
2023/08/29 01:40:39;;;;;;;5.70;1.70;;;;;;;;;;5021470;28;20458;-58
2023/08/29 01:43:04;;;;;;;6.27;1.73;;;;;;;;;;5027722;28;20405;-58
2023/08/29 01:45:29;;;;;;;4.43;1.50;;;;;;;;;;5027987;28;20419;-58
2023/08/29 01:47:55;;;;;;;3.33;1.42;;;;;;;;;;5043049;28;20405;-58
2023/08/29 01:50:20;;;;;;;5.22;1.77;;;;;;;;;;5037884;28;20536;-58
2023/08/29 01:52:45;;;;;;;4.77;1.90;;;;;;;;;;5041811;28;20405;-58
2023/08/29 01:55:11;;;;;;;4.03;1.50;;;;;;;;;;5039082;28;20390;-58
2023/08/29 01:57:36;;;;;;;4.57;1.60;;;;;;;;;;5038766;28;20401;-58
2023/08/29 02:00:02;;;;;;;3.90;1.67;;;;;;;;;;5040902;28;20405;-59
2023/08/29 02:02:27;;;;;;;4.43;1.58;;;;;;;;;;5041006;28;20401;-58
2023/08/29 02:04:53;;;;;;;5.17;1.60;;;;;;;;;;5038964;28;20409;-58
2023/08/29 02:07:18;;;;;;;4.93;1.60;;;;;;;;;;5039487;28;20828;-58
2023/08/29 02:09:43;;;;;;;6.23;1.70;;;;;;;;;;5041832;28;20430;-58
2023/08/29 02:12:08;;;;;;;5.03;1.50;;;;;;;;;;5045221;28;20428;-58
2023/08/29 02:14:34;;;;;;;7.03;1.80;;;;;;;;;;5049237;28;20389;-58
2023/08/29 02:16:59;;;;;;;3.60;1.40;;;;;;;;;;5048439;28;20745;-58
2023/08/29 02:19:26;;;;;;;4.00;1.50;;;;;;;;;;5048889;28;20880;-58
2023/08/29 02:21:51;;;;;;;5.25;1.55;;;;;;;;;;5049429;28;20416;-58
2023/08/29 02:24:17;;;;;;;3.80;1.20;;;;;;;;;;5048156;28;20398;-58
2023/08/29 02:26:42;;;;;;;5.50;1.70;;;;;;;;;;5049193;28;20401;-58
2023/08/29 02:29:08;;;;;;;4.07;1.40;;;;;;;;;;5048479;28;20406;-58
2023/08/29 02:31:33;;;;;;;5.67;1.43;;;;;;;;;;5050395;28;20417;-58
2023/08/29 02:33:58;;;;;;;4.00;1.20;;;;;;;;;;5052879;28;20904;-58
2023/08/29 02:36:23;;;;;;;4.00;1.40;;;;;;;;;;5051437;28;20401;-58
2023/08/29 02:38:49;;;;;;;4.80;1.50;;;;;;;;;;5052913;28;20824;-58
2023/08/29 02:41:15;;;;;;;3.33;1.45;;;;;;;;;;5052013;28;20759;-58
2023/08/29 02:43:40;;;;;;;2.80;1.23;;;;;;;;;;5044004;28;20395;-58
2023/08/29 02:46:06;;;;;;;3.00;1.33;;;;;;;;;;5031927;28;20811;-58
2023/08/29 02:48:31;;;;;;;4.72;1.30;;;;;;;;;;5031565;28;20404;-58
2023/08/29 02:50:56;;;;;;;3.42;1.20;;;;;;;;;;5031854;28;20430;-58
2023/08/29 02:53:22;;;;;;;4.43;1.50;;;;;;;;;;5032231;28;20794;-58
2023/08/29 02:55:53;;;;;;;4.53;1.70;;;;;;;;;;5032208;28;20967;-58
2023/08/29 02:58:19;;;;;;;4.00;1.48;;;;;;;;;;5031080;28;20395;-58
2023/08/29 03:00:45;;;;;;;3.42;1.25;;;;;;;;;;5032169;28;20923;-58
2023/08/29 03:03:11;;;;;;;4.37;1.70;;;;;;;;;;5032102;28;20395;-58
2023/08/29 03:05:36;;;;;;;3.72;1.40;;;;;;;;;;5031533;28;20423;-58
2023/08/29 03:08:05;;;;;;;4.13;1.70;;;;;;;;;;5031813;28;20506;-58
2023/08/29 03:10:31;;;;;;;5.53;1.58;;;;;;;;;;5032285;28;20391;-58
2023/08/29 03:12:56;;;;;;;3.03;1.27;;;;;;;;;;5029924;28;20417;-58
2023/08/29 03:15:21;;;;;;;4.60;1.10;;;;;;;;;;5031797;28;20480;-58
2023/08/29 03:17:47;;;;;;;6.10;1.27;;;;;;;;;;5032156;28;20797;-58
2023/08/29 03:20:12;;;;;;;4.83;1.40;;;;;;;;;;5030772;28;20403;-58
2023/08/29 03:22:38;;;;;;;4.90;1.40;;;;;;;;;;5032105;28;20412;-58
2023/08/29 03:25:03;;;;;;;4.00;1.10;;;;;;;;;;5031457;28;20437;-59
2023/08/29 03:27:28;;;;;;;3.50;1.33;;;;;;;;;;5030757;28;20806;-58
2023/08/29 03:29:54;;;;;;;4.40;1.10;;;;;;;;;;5031791;28;20908;-58
2023/08/29 03:32:19;;;;;;;2.70;1.00;;;;;;;;;;5031351;28;20403;-58
2023/08/29 03:34:44;;;;;;;2.77;1.00;;;;;;;;;;5031013;28;20387;-58
2023/08/29 03:37:10;;;;;;;3.30;1.00;;;;;;;;;;5031135;28;20399;-58
2023/08/29 03:39:35;;;;;;;1.93;0.83;;;;;;;;;;5031715;28;20818;-58
2023/08/29 03:42:00;;;;;;;3.03;1.00;;;;;;;;;;5029828;28;20399;-59
2023/08/29 03:44:26;;;;;;;3.53;1.10;;;;;;;;;;5043388;28;20401;-57
2023/08/29 03:46:51;;;;;;;3.85;1.30;;;;;;;;;;5023203;28;20429;-58
2023/08/29 03:49:16;;;;;;;2.60;1.02;;;;;;;;;;5014453;28;20404;-58
2023/08/29 03:51:41;;;;;;;3.30;1.20;;;;;;;;;;5021063;28;20818;-58
2023/08/29 03:54:07;;;;;;;2.80;1.00;;;;;;;;;;5019984;28;20403;-58
2023/08/29 03:56:33;;;;;;;3.40;1.00;;;;;;;;;;5008724;28;20504;-58
2023/08/29 03:59:01;;;;;;;4.38;1.00;;;;;;;;;;4997885;28;20420;-58
2023/08/29 04:01:26;;;;;;;2.73;1.10;;;;;;;;;;5002232;28;20399;-58
2023/08/29 04:03:52;;;;;;;3.53;1.30;;;;;;;;;;5011751;28;20401;-58
2023/08/29 04:06:18;;;;;;;3.58;1.10;;;;;;;;;;5005358;28;20438;-58
2023/08/29 04:08:43;;;;;;;4.75;1.30;;;;;;;;;;5003217;28;20429;-58
2023/08/29 04:11:09;;;;;;;4.33;1.30;;;;;;;;;;5001484;28;20410;-58
2023/08/29 04:13:34;;;;;;;4.63;1.50;;;;;;;;;;4998319;28;20406;-58
2023/08/29 04:16:03;;;;;;;4.63;1.20;;;;;;;;;;4988828;28;20473;-58
2023/08/29 04:18:29;;;;;;;3.58;1.05;;;;;;;;;;4982346;28;20468;-58
2023/08/29 04:20:55;;;;;;;4.63;1.10;;;;;;;;;;4986970;28;21194;-58
2023/08/29 04:23:20;;;;;;;3.43;1.10;;;;;;;;;;4980509;28;20829;-58
2023/08/29 04:25:45;;;;;;;2.73;1.00;;;;;;;;;;4988859;28;20423;-58
2023/08/29 04:28:12;;;;;;;2.60;1.20;;;;;;;;;;4992646;28;20457;-58
2023/08/29 04:30:37;;;;;;;3.45;0.90;;;;;;;;;;4994308;28;20406;-58
2023/08/29 04:33:03;;;;;;;3.80;1.03;;;;;;;;;;4988807;28;20414;-58
2023/08/29 04:35:28;;;;;;;2.33;0.85;;;;;;;;;;4990591;28;20449;-58
2023/08/29 04:37:54;;;;;;;2.97;1.30;;;;;;;;;;4989982;28;20420;-58
2023/08/29 04:40:21;;;;;;;2.20;1.10;;;;;;;;;;4984400;28;20411;-58
2023/08/29 04:42:46;;;;;;;3.50;1.02;;;;;;;;;;4981588;28;20788;-58
2023/08/29 04:45:12;;;;;;;4.32;1.10;;;;;;;;;;4983729;28;20489;-58
2023/08/29 04:47:38;;;;;;;4.88;1.10;;;;;;;;;;4985269;28;20463;-58
2023/08/29 04:50:03;;;;;;;2.72;1.15;;;;;;;;;;4987766;28;20420;-58
2023/08/29 04:52:29;;;;;;;2.83;0.90;;;;;;;;;;4992745;28;20410;-58
2023/08/29 04:54:54;;;;;;;3.73;1.00;;;;;;;;;;4991242;28;20450;-58
2023/08/29 04:57:20;;;;;;;3.33;1.20;;;;;;;;;;4987254;28;20403;-58
2023/08/29 04:59:46;;;;;;;4.03;1.03;;;;;;;;;;4990717;28;20419;-58
2023/08/29 05:02:11;;;;;;;2.75;1.00;;;;;;;;;;4992594;28;20620;-58
2023/08/29 05:04:36;;;;;;;3.07;1.10;;;;;;;;;;4979275;28;20849;-58
2023/08/29 05:07:02;;;;;;;7.83;1.20;;;;;;;;;;4979909;28;20481;-58
2023/08/29 05:09:27;;;;;;;3.80;1.00;;;;;;;;;;4984981;28;20413;-58
2023/08/29 05:11:52;;;;;;;4.50;1.10;;;;;;;;;;4988130;28;20410;-58
2023/08/29 05:14:18;;;;;;;3.50;1.20;;;;;;;;;;4987402;28;20418;-58
2023/08/29 05:16:43;;;;;;;3.30;1.20;;;;;;;;;;4992586;28;20546;-58
2023/08/29 05:19:08;;;;;;;2.67;1.00;;;;;;;;;;4989135;28;20502;-58
2023/08/29 05:21:34;;;;;;;3.90;1.00;;;;;;;;;;4989167;28;20481;-58
2023/08/29 05:24:00;;;;;;;3.10;1.30;;;;;;;;;;4990030;28;20398;-58
2023/08/29 05:26:25;;;;;;;4.90;1.10;;;;;;;;;;4993693;28;20413;-58
2023/08/29 05:28:51;;;;;;;3.05;1.00;;;;;;;;;;5018099;28;20901;-59
2023/08/29 05:31:16;;;;;;;3.77;1.03;;;;;;;;;;5014062;28;20430;-58
2023/08/29 05:33:41;;;;;;;4.13;1.20;;;;;;;;;;5019025;28;20404;-58
2023/08/29 05:36:07;;;;;;;3.20;0.90;;;;;;;;;;5019526;28;20989;-59
2023/08/29 05:38:32;;;;;;;2.80;1.00;;;;;;;;;;5012548;28;20766;-58
2023/08/29 05:40:57;;;;;;;2.30;0.90;;;;;;;;;;5009871;28;20395;-58
2023/08/29 05:43:23;;;;;;;2.53;0.90;;;;;;;;;;5012633;28;20438;-58
2023/08/29 05:45:48;;;;;;;2.73;1.03;;;;;;;;;;5012890;28;20944;-58
2023/08/29 05:48:13;;;;;;;3.97;1.05;;;;;;;;;;5008582;28;20766;-58
2023/08/29 05:50:40;;;;;;;5.70;1.10;;;;;;;;;;5014615;28;20766;-58
2023/08/29 05:53:05;;;;;;;2.72;0.90;;;;;;;;;;5007880;28;20423;-58
2023/08/29 05:55:30;;;;;;;2.93;0.90;;;;;;;;;;5010798;28;20395;-58
2023/08/29 05:57:56;;;;;;;2.90;1.00;;;;;;;;;;5014825;28;20906;-58
2023/08/29 06:00:21;;;;;;;1.73;0.97;;;;;;;;;;5009315;28;20455;-58
2023/08/29 06:02:47;;;;;;;2.97;1.00;;;;;;;;;;5011203;28;20462;-58
2023/08/29 06:05:13;;;;;;;2.38;0.98;;;;;;;;;;5013100;28;20926;-58
2023/08/29 06:07:38;;;;;;;3.03;1.00;;;;;;;;;;5016332;28;20412;-58
2023/08/29 06:10:05;;;;;;;3.83;1.10;;;;;;;;;;5012654;28;20429;-59
2023/08/29 06:12:31;;;;;;;2.92;1.10;;;;;;;;;;5014712;28;20399;-58
2023/08/29 06:14:56;;;;;;;3.53;1.30;;;;;;;;;;5013437;28;20449;-58
2023/08/29 06:17:21;;;;;;;2.97;1.00;;;;;;;;;;5024241;28;20453;-58
2023/08/29 06:19:46;;;;;;;4.77;1.37;;;;;;;;;;5025760;28;20402;-58
2023/08/29 06:22:12;;;;;;;4.37;1.50;;;;;;;;;;5022477;28;20837;-58
2023/08/29 06:24:37;;;;;;;5.03;1.37;;;;;;;;;;5019052;28;20411;-58
2023/08/29 06:27:02;;;;;;;4.05;1.25;;;;;;;;;;5012052;28;20843;-58
2023/08/29 06:29:28;;;;;;;4.30;1.20;;;;;;;;;;5015315;28;20409;-58
2023/08/29 06:31:54;;;;;;;4.77;1.10;;;;;;;;;;5017789;28;20803;-58
2023/08/29 06:34:19;;;;;;;4.17;1.50;;;;;;;;;;5010447;28;20481;-58
2023/08/29 06:36:44;;;;;;;5.28;1.20;;;;;;;;;;5013769;28;20817;-58
2023/08/29 06:39:09;;;;;;;3.73;1.20;;;;;;;;;;5019916;28;20403;-58
2023/08/29 06:41:35;;;;;;;3.57;1.20;;;;;;;;;;5025281;28;20399;-58
2023/08/29 06:44:00;;;;;;;5.30;1.63;;;;;;;;;;5018868;28;20400;-58
2023/08/29 06:46:25;;;;;;;4.60;1.40;;;;;;;;;;5037047;28;20401;-58
2023/08/29 06:48:51;;;;;;;3.83;1.27;;;;;;;;;;5032325;28;20422;-58
2023/08/29 06:51:16;;;;;;;2.73;1.30;;;;;;;;;;5032291;28;20407;-58
2023/08/29 06:53:41;;;;;;;3.33;1.30;;;;;;;;;;5031590;28;20421;-59
2023/08/29 06:56:06;;;;;;;4.43;1.37;;;;;;;;;;5018986;28;20403;-59
2023/08/29 06:58:32;;;;;;;3.40;1.20;;;;;;;;;;5015739;28;20737;-58
2023/08/29 07:00:57;;;;;;;5.17;1.20;;;;;;;;;;5023224;28;20450;-58
2023/08/29 07:03:22;;;;;;;3.93;1.07;;;;;;;;;;5021618;28;20405;-58
2023/08/29 07:05:48;;;;;;;3.33;1.00;;;;;;;;;;5021035;28;20407;-58
2023/08/29 07:08:13;;;;;;;3.83;1.00;;;;;;;;;;5017338;28;20438;-58
2023/08/29 07:10:38;;;;;;;4.97;1.02;;;;;;;;;;5023445;28;20379;-58
2023/08/29 07:13:04;;;;;;;3.95;1.10;;;;;;;;;;5021159;28;20404;-58
2023/08/29 07:15:29;;;;;;;4.57;1.00;;;;;;;;;;5024463;28;20399;-59
2023/08/29 07:17:55;;;;;;;5.50;1.23;;;;;;;;;;5031010;28;20420;-58
2023/08/29 07:20:20;;;;;;;3.97;1.20;;;;;;;;;;5028527;28;20486;-58
2023/08/29 07:22:45;;;;;;;3.83;1.13;;;;;;;;;;5033011;28;20530;-58
2023/08/29 07:25:11;;;;;;;4.23;1.10;;;;;;;;;;5032493;28;20412;-59
2023/08/29 07:27:36;;;;;;;3.83;1.00;;;;;;;;;;5031236;28;20413;-58
2023/08/29 07:30:03;;;;;;;4.23;0.87;;;;;;;;;;5032056;28;20411;-59
2023/08/29 07:32:28;;;;;;;5.40;1.20;;;;;;;;;;5022833;28;20754;-58
2023/08/29 07:34:55;;;;;;;4.30;1.20;;;;;;;;;;5031234;28;20402;-58
2023/08/29 07:37:20;;;;;;;4.53;1.10;;;;;;;;;;5029394;28;20459;-58
2023/08/29 07:39:45;;;;;;;3.65;0.90;;;;;;;;;;5029057;28;21756;-58
2023/08/29 07:42:10;;;;;;;3.72;1.00;;;;;;;;;;5024603;28;21237;-59
2023/08/29 07:44:36;;;;;;;4.13;1.13;;;;;;;;;;5019544;28;21106;-58
2023/08/29 07:47:01;;;;;;;4.95;1.10;;;;;;;;;;5023088;28;20491;-60
2023/08/29 07:49:27;;;;;;;4.57;1.10;;;;;;;;;;5012297;28;20411;-58
2023/08/29 07:51:53;;;;;;;3.50;1.00;;;;;;;;;;5020830;28;20449;-58
2023/08/29 07:54:19;;;;;;;2.72;1.00;;;;;;;;;;5020768;28;20411;-58
2023/08/29 07:56:44;;;;;;;3.30;1.08;;;;;;;;;;5030961;28;20428;-58
2023/08/29 07:59:10;;;;;;;3.73;0.90;;;;;;;;;;5033833;28;20425;-59
2023/08/29 08:01:35;;;;;;;3.37;0.87;;;;;;;;;;5027462;28;20811;-58
2023/08/29 08:04:01;;;;;;;3.40;1.17;;;;;;;;;;5032333;28;20437;-60
2023/08/29 08:06:26;;;;;;;3.08;0.80;;;;;;;;;;5032228;28;20461;-58
2023/08/29 08:08:53;;;;;;;3.07;0.80;;;;;;;;;;5015975;28;21726;-58
2023/08/29 08:11:18;;;;;;;2.03;0.80;;;;;;;;;;5014246;28;20436;-58
2023/08/29 08:13:44;;;;;;;2.53;0.82;;;;;;;;;;5024024;28;20968;-58
2023/08/29 08:16:09;;;;;;;3.20;0.90;;;;;;;;;;5016365;28;20408;-58
2023/08/29 08:18:34;;;;;;;3.35;0.80;;;;;;;;;;5020869;28;20401;-58
2023/08/29 08:21:00;;;;;;;4.43;0.80;;;;;;;;;;5035561;28;20528;-58
2023/08/29 08:23:25;;;;;;;3.50;1.02;;;;;;;;;;5043551;28;20740;-58
2023/08/29 08:25:50;;;;;;;4.90;1.10;;;;;;;;;;5038573;28;20417;-58
2023/08/29 08:28:15;;;;;;;3.60;1.23;;;;;;;;;;5042070;28;20416;-59
2023/08/29 08:30:41;;;;;;;2.50;0.80;;;;;;;;;;5038156;28;20399;-58
2023/08/29 08:33:06;;;;;;;3.20;1.10;;;;;;;;;;5029019;28;20442;-59
2023/08/29 08:35:32;;;;;;;3.47;0.80;;;;;;;;;;5033113;28;20518;-58
2023/08/29 08:37:57;;;;;;;3.40;0.80;;;;;;;;;;5035233;28;20401;-58
2023/08/29 08:40:22;;;;;;;3.17;0.90;;;;;;;;;;5030327;28;20747;-58
2023/08/29 08:42:48;;;;;;;2.67;0.73;;;;;;;;;;5027569;28;20415;-58
2023/08/29 08:45:13;;;;;;;3.17;0.70;;;;;;;;;;5032368;28;21002;-58
2023/08/29 08:47:39;;;;;;;3.47;0.60;;;;;;;;;;5028608;28;20571;-58
2023/08/29 08:50:04;;;;;;;1.95;0.52;;;;;;;;;;5026561;28;20421;-59
2023/08/29 08:52:32;;;;;;;2.30;0.50;;;;;;;;;;5034917;28;20813;-58
2023/08/29 08:54:57;;;;;;;2.10;0.60;;;;;;;;;;5034901;28;20421;-58
2023/08/29 08:57:22;;;;;;;2.03;0.50;;;;;;;;;;5020346;28;20392;-59
2023/08/29 08:59:47;;;;;;;3.63;0.63;;;;;;;;;;5021086;28;20761;-58
2023/08/29 09:02:14;;;;;;;2.33;0.50;;;;;;;;;;5023319;28;20413;-59
2023/08/29 09:04:40;;;;;;;1.73;0.50;;;;;;;;;;5006972;28;20399;-58
2023/08/29 09:07:05;;;;;;;3.05;0.60;;;;;;;;;;5016680;28;20487;-58
2023/08/29 09:09:30;;;;;;;2.50;0.60;;;;;;;;;;5022795;28;20395;-58
2023/08/29 09:11:56;;;;;;;2.17;0.73;;;;;;;;;;5030469;28;20823;-58
2023/08/29 09:14:21;;;;;;;1.43;0.50;;;;;;;;;;5026327;28;20486;-58
2023/08/29 09:16:47;;;;;;;3.00;0.50;;;;;;;;;;5021962;28;20399;-58
2023/08/29 09:19:13;;;;;;;2.77;0.70;;;;;;;;;;5020557;28;20794;-58
2023/08/29 09:21:41;;;;;;;1.98;0.60;;;;;;;;;;5020881;28;20426;-58
2023/08/29 09:24:09;;;;;;;2.50;0.70;;;;;;;;;;5019357;28;20906;-59
2023/08/29 09:26:34;;;;;;;2.47;0.50;;;;;;;;;;5019810;28;20443;-58
2023/08/29 09:28:59;;;;;;;1.60;0.50;;;;;;;;;;5022624;28;20427;-58
2023/08/29 09:31:25;;;;;;;1.37;0.40;;;;;;;;;;5009224;28;20447;-58
2023/08/29 09:33:50;;;;;;;2.00;0.50;;;;;;;;;;5018129;28;20499;-58
2023/08/29 09:36:15;;;;;;;1.95;0.40;;;;;;;;;;5020986;28;20419;-58
2023/08/29 09:38:41;;;;;;;2.07;0.40;;;;;;;;;;5018044;28;20510;-58
2023/08/29 09:41:11;;;;;;;1.80;0.70;;;;;;;;;;5032525;28;20482;-58
2023/08/29 09:43:38;;;;;;;2.33;0.57;;;;;;;;;;5025571;28;20540;-58
2023/08/29 09:46:03;;;;;;;0.93;0.43;;;;;;;;;;5025506;28;20838;-59
2023/08/29 09:48:29;;;;;;;2.37;0.50;;;;;;;;;;5023655;28;20478;-58
2023/08/29 09:50:54;;;;;;;1.20;0.40;;;;;;;;;;5025054;28;20411;-58
2023/08/29 09:53:19;;;;;;;2.00;0.50;;;;;;;;;;5025712;28;20395;-58
2023/08/29 09:55:46;;;;;;;1.90;0.50;;;;;;;;;;5025096;28;20439;-58
2023/08/29 09:58:11;;;;;;;2.20;0.43;;;;;;;;;;5023739;28;20475;-58
2023/08/29 10:00:36;;;;;;;1.97;0.50;;;;;;;;;;5037112;28;20411;-58
2023/08/29 10:03:03;;;;;;;1.67;0.50;;;;;;;;;;5027462;28;20413;-59
2023/08/29 10:05:31;;;;;;;1.83;0.60;;;;;;;;;;5026810;28;20409;-58
2023/08/29 10:07:57;;;;;;;1.75;0.60;;;;;;;;;;5033028;28;20422;-58
2023/08/29 10:10:22;;;;;;;2.22;0.63;;;;;;;;;;5024194;28;20398;-58
2023/08/29 10:12:47;;;;;;;4.30;0.43;;;;;;;;;;5021386;28;20453;-58
2023/08/29 10:15:13;;;;;;;2.13;0.57;;;;;;;;;;5022479;28;20490;-58
2023/08/29 10:17:38;;;;;;;2.00;0.43;;;;;;;;;;5025723;28;20413;-59
2023/08/29 10:20:08;;;;;;;2.00;0.60;;;;;;;;;;5023524;28;20414;-58
2023/08/29 10:22:33;;;;;;;3.38;0.50;;;;;;;;;;5020357;28;20481;-58
2023/08/29 10:24:59;;;;;;;5.30;0.90;;;;;;;;;;5024722;28;20534;-59
2023/08/29 10:27:24;;;;;;;14.20;1.20;;;;;;;;;;5024929;28;20394;-59
2023/08/29 10:29:49;;;;;;;6.60;0.70;;;;;;;;;;5021342;28;20439;-58
2023/08/29 10:32:15;;;;;;;1.98;0.40;;;;;;;;;;5024068;28;20843;-58
2023/08/29 10:34:40;;;;;;;1.70;0.32;;;;;;;;;;5033219;28;20395;-58
2023/08/29 10:37:09;;;;;;;2.27;0.47;;;;;;;;;;5031607;28;20418;-59
2023/08/29 10:39:35;;;;;;;0.98;0.52;;;;;;;;;;5026186;28;20409;-58
2023/08/29 10:42:00;;;;;;;2.23;0.53;;;;;;;;;;5024850;28;20417;-58
2023/08/29 10:44:31;;;;;;;1.33;0.47;;;;;;;;;;5023295;28;20842;-58
2023/08/29 10:47:16;;;;;;;1.85;0.57;;;;;;;;;;5020595;28;20437;-58
2023/08/29 10:49:43;;;;;;;1.48;0.57;;;;;;;;;;5042038;28;20405;-59
2023/08/29 10:52:08;;;;;;;7.40;0.82;;;;;;;;;;5043207;28;20413;-59
2023/08/29 10:54:34;;;;;;;2.00;0.50;;;;;;;;;;5044344;28;20405;-58
2023/08/29 10:57:00;;;;;;;2.07;0.67;;;;;;;;;;5038308;28;20543;-59
2023/08/29 10:59:32;;;;;;;1.95;0.70;;;;;;;;;;5044639;28;20728;-58
2023/08/29 11:02:16;;;;;;;1.42;0.70;;;;;;;;;;5036764;28;20411;-59
2023/08/29 11:04:41;;;;;;;1.88;0.75;;;;;;;;;;5035072;28;20391;-58
2023/08/29 11:07:08;;;;;;;2.47;0.77;;;;;;;;;;5037671;28;20776;-59
2023/08/29 11:09:34;;;;;;;1.90;0.60;;;;;;;;;;5044996;28;20538;-58
2023/08/29 11:12:07;;;;;;;1.50;0.40;;;;;;;;;;5043960;28;20493;-58
2023/08/29 11:14:51;;;;;;;1.83;0.40;;;;;;;;;;5040156;28;21023;-58
2023/08/29 11:17:23;;;;;;;1.83;0.40;;;;;;;;;;5041966;28;20427;-59
2023/08/29 11:19:51;;;;;;;2.30;0.50;;;;;;;;;;5045578;28;21305;-58
2023/08/29 11:22:16;;;;;;;3.35;0.77;;;;;;;;;;5026896;28;20411;-58
2023/08/29 11:24:41;;;;;;;3.10;0.60;;;;;;;;;;5031065;28;20940;-58
2023/08/29 11:27:07;;;;;;;2.20;0.60;;;;;;;;;;5035296;28;20718;-58
2023/08/29 11:29:34;;;;;;;1.67;0.53;;;;;;;;;;5022210;28;20414;-59
2023/08/29 11:32:00;;;;;;;2.10;0.63;;;;;;;;;;5017896;28;20902;-58
2023/08/29 11:34:25;;;;;;;2.00;0.60;;;;;;;;;;5026353;28;20479;-58
2023/08/29 11:36:51;;;;;;;1.30;0.50;;;;;;;;;;5036562;28;20446;-58
2023/08/29 11:39:17;;;;;;;2.90;0.60;;;;;;;;;;5030661;28;20760;-58
2023/08/29 11:41:43;;;;;;;2.33;0.70;;;;;;;;;;5019600;28;20420;-58
2023/08/29 11:44:08;;;;;;;1.60;0.60;;;;;;;;;;5030620;28;20461;-59
2023/08/29 11:46:34;;;;;;;2.00;0.80;;;;;;;;;;5029754;28;20459;-58
2023/08/29 11:48:59;;;;;;;1.70;0.50;;;;;;;;;;5028556;28;20420;-58
2023/08/29 11:51:25;;;;;;;2.60;0.70;;;;;;;;;;5032408;28;20411;-58
2023/08/29 11:53:50;;;;;;;3.63;0.88;;;;;;;;;;5032423;28;20474;-58
2023/08/29 11:56:15;;;;;;;2.67;0.68;;;;;;;;;;5031728;28;20407;-58
2023/08/29 11:58:41;;;;;;;1.98;0.75;;;;;;;;;;5034104;28;20463;-58
2023/08/29 12:01:08;;;;;;;2.30;0.80;;;;;;;;;;5034334;28;21032;-58
2023/08/29 12:03:35;;;;;;;2.78;0.70;;;;;;;;;;5031960;28;20897;-58
2023/08/29 12:06:00;;;;;;;2.03;0.80;;;;;;;;;;5026203;28;20430;-58
2023/08/29 12:08:33;;;;;;;2.23;0.77;;;;;;;;;;5034828;28;20417;-58
2023/08/29 12:11:00;;;;;;;2.33;0.88;;;;;;;;;;5035024;28;21460;-58
2023/08/29 12:13:26;;;;;;;5.55;1.10;;;;;;;;;;5023542;28;20518;-58
2023/08/29 12:15:51;;;;;;;4.00;1.10;;;;;;;;;;5033845;28;20964;-58
2023/08/29 12:18:23;;;;;;;2.30;1.03;;;;;;;;;;5025023;28;20403;-58
2023/08/29 12:20:48;;;;;;;2.30;1.00;;;;;;;;;;5022579;28;20490;-58
2023/08/29 12:23:22;;;;;;;3.25;1.20;;;;;;;;;;5019068;28;20500;-58
2023/08/29 12:25:48;;;;;;;3.95;1.30;;;;;;;;;;5006968;28;20475;-58
2023/08/29 12:28:13;;;;;;;3.63;1.50;;;;;;;;;;5022687;28;21831;-58
2023/08/29 12:30:38;;;;;;;3.53;1.43;;;;;;;;;;5026034;28;20413;-58
2023/08/29 12:33:04;;;;;;;3.63;1.50;;;;;;;;;;5032947;28;20428;-58
2023/08/29 12:35:29;;;;;;;4.30;1.63;;;;;;;;;;5031411;28;20414;-58
2023/08/29 12:37:54;;;;;;;4.03;1.63;;;;;;;;;;5030563;28;20807;-58
2023/08/29 12:40:20;;;;;;;3.97;2.22;;;;;;;;;;5030199;28;20413;-58
2023/08/29 12:42:47;;;;;;;4.45;2.20;;;;;;;;;;5033869;28;20952;-58
2023/08/29 12:45:13;;;;;;;4.30;1.98;;;;;;;;;;5026304;28;20410;-58
2023/08/29 12:47:38;;;;;;;3.63;2.10;;;;;;;;;;5027052;28;20413;-58
2023/08/29 12:50:04;;;;;;;5.57;1.97;;;;;;;;;;5030464;28;20728;-59
2023/08/29 12:52:29;;;;;;;3.38;2.13;;;;;;;;;;5023995;28;21378;-58
2023/08/29 12:54:54;;;;;;;3.50;1.70;;;;;;;;;;5020750;28;20492;-58
2023/08/29 12:57:21;;;;;;;3.75;1.60;;;;;;;;;;5019757;28;20408;-58
2023/08/29 12:59:47;;;;;;;2.63;1.38;;;;;;;;;;5023129;28;20418;-58
2023/08/29 13:02:12;;;;;;;4.45;1.67;;;;;;;;;;5015299;28;20914;-59
2023/08/29 13:04:38;;;;;;;3.65;1.80;;;;;;;;;;5016453;28;20476;-58
2023/08/29 13:07:03;;;;;;;3.08;2.00;;;;;;;;;;5022323;28;20426;-59
2023/08/29 13:09:28;;;;;;;3.03;1.70;;;;;;;;;;5022638;28;20453;-58
2023/08/29 13:11:54;;;;;;;4.20;2.20;;;;;;;;;;5019234;28;20441;-58
2023/08/29 13:14:19;;;;;;;4.50;2.20;;;;;;;;;;5021495;28;20405;-58
2023/08/29 13:16:44;;;;;;;2.90;1.90;;;;;;;;;;5021681;28;20931;-58
2023/08/29 13:19:10;;;;;;;3.15;1.60;;;;;;;;;;5020845;28;20459;-58
2023/08/29 13:21:35;;;;;;;2.63;1.05;;;;;;;;;;5020690;28;20922;-58
2023/08/29 13:24:00;;;;;;;2.77;0.83;;;;;;;;;;5022466;28;20413;-59
2023/08/29 13:26:26;;;;;;;2.73;0.90;;;;;;;;;;5022543;28;20877;-58
2023/08/29 13:28:53;;;;;;;2.57;1.10;;;;;;;;;;5018732;28;20411;-58
2023/08/29 13:31:19;;;;;;;2.53;1.00;;;;;;;;;;5019026;28;20523;-58
2023/08/29 13:33:45;;;;;;;2.97;1.27;;;;;;;;;;4994268;28;20418;-58
2023/08/29 13:36:11;;;;;;;2.17;0.90;;;;;;;;;;4987908;28;20410;-59
2023/08/29 13:38:36;;;;;;;1.70;0.88;;;;;;;;;;4987577;28;20441;-58
2023/08/29 13:41:01;;;;;;;2.90;1.20;;;;;;;;;;4988125;28;20968;-59
2023/08/29 13:43:27;;;;;;;2.03;1.00;;;;;;;;;;4994089;28;20394;-58
2023/08/29 13:45:52;;;;;;;2.30;1.10;;;;;;;;;;4994892;28;20414;-58
2023/08/29 13:48:17;;;;;;;2.93;1.30;;;;;;;;;;4991610;28;20454;-58
2023/08/29 13:50:44;;;;;;;4.13;1.30;;;;;;;;;;4997832;28;21585;-58
2023/08/29 13:53:09;;;;;;;2.43;1.20;;;;;;;;;;5006701;28;20448;-59
2023/08/29 13:55:34;;;;;;;2.53;1.40;;;;;;;;;;5004419;28;20960;-58
2023/08/29 13:57:59;;;;;;;3.40;1.50;;;;;;;;;;5000434;28;20900;-58
2023/08/29 14:00:26;;;;;;;2.83;1.60;;;;;;;;;;4987756;28;20413;-58
2023/08/29 14:02:52;;;;;;;3.50;1.70;;;;;;;;;;4988375;28;20410;-58
2023/08/29 14:05:17;;;;;;;3.35;1.70;;;;;;;;;;5009304;28;20423;-59
2023/08/29 14:07:44;;;;;;;3.73;1.90;;;;;;;;;;5011979;28;20985;-58
2023/08/29 14:10:09;;;;;;;5.30;1.67;;;;;;;;;;4998098;28;20421;-58
2023/08/29 14:12:34;;;;;;;3.83;1.07;;;;;;;;;;4992825;28;20909;-58
2023/08/29 14:15:00;;;;;;;1.87;0.80;;;;;;;;;;4991777;28;20905;-58
2023/08/29 14:17:25;;;;;;;1.93;0.90;;;;;;;;;;4997255;28;20939;-58
2023/08/29 14:19:50;;;;;;;4.10;1.30;;;;;;;;;;4984675;28;20441;-58
2023/08/29 14:22:16;;;;;;;1.40;0.90;;;;;;;;;;4984652;28;20411;-58
2023/08/29 14:24:41;;;;;;;1.57;0.70;;;;;;;;;;4989237;28;20407;-58
2023/08/29 14:27:06;;;;;;;1.17;0.50;;;;;;;;;;4992270;28;20448;-58
2023/08/29 14:29:32;;;;;;;1.70;0.55;;;;;;;;;;4995223;28;20744;-58
2023/08/29 14:31:57;;;;;;;2.30;0.70;;;;;;;;;;4995313;28;20770;-58
2023/08/29 14:34:23;;;;;;;1.00;0.50;;;;;;;;;;4998436;28;20461;-58